Time;durP1;ratioP1;P1;durP2;ratioP2;P2;SDS_P1;SDS_P2;PMS_P1;PMS_P2;Temp;Humidity;BMP_temperature;BMP_pressure;BME280_temperature;BME280_humidity;BME280_pressure;Samples;Min_cycle;Max_cycle;Signal;HPM_P1;HPM_P2
2022/09/08 00:01:17;;;;;;;15.10;7.50;;;21.40;99.90;;;;;;5072982;28;20066;-70
2022/09/08 00:03:45;;;;;;;10.20;7.57;;;21.40;99.90;;;;;;5077123;28;20097;-72
2022/09/08 00:06:16;;;;;;;11.27;7.82;;;21.40;99.90;;;;;;5089231;28;20126;-71
2022/09/08 00:08:45;;;;;;;12.25;7.53;;;21.30;99.90;;;;;;5090298;28;20054;-72
2022/09/08 00:11:17;;;;;;;9.23;7.30;;;21.30;99.90;;;;;;5091428;28;20454;-72
2022/09/08 00:13:46;;;;;;;13.65;7.70;;;21.30;99.90;;;;;;5077570;28;20044;-72
2022/09/08 00:16:18;;;;;;;13.02;7.47;;;21.20;99.90;;;;;;5078627;28;20064;-73
2022/09/08 00:18:50;;;;;;;12.23;7.20;;;21.20;99.90;;;;;;5060480;28;20198;-70
2022/09/08 00:21:23;;;;;;;11.07;6.50;;;21.20;99.90;;;;;;5082266;28;20044;-70
2022/09/08 00:23:50;;;;;;;9.00;6.88;;;21.00;99.90;;;;;;5074666;28;20508;-72
2022/09/08 00:26:19;;;;;;;8.35;6.43;;;20.80;99.90;;;;;;5060598;28;20044;-70
2022/09/08 00:28:48;;;;;;;10.57;6.00;;;20.70;99.90;;;;;;5086695;28;20562;-72
2022/09/08 00:31:16;;;;;;;11.13;6.07;;;20.60;99.90;;;;;;5108758;27;20035;-71
2022/09/08 00:33:44;;;;;;;6.65;5.18;;;20.50;99.90;;;;;;5098829;28;20136;-70
2022/09/08 00:36:16;;;;;;;8.45;5.38;;;20.40;99.90;;;;;;5072288;28;20043;-71
2022/09/08 00:38:50;;;;;;;9.05;5.22;;;20.30;99.90;;;;;;5090185;28;20051;-71
2022/09/08 00:41:19;;;;;;;10.85;5.18;;;20.10;99.90;;;;;;5089917;28;20092;-72
2022/09/08 00:43:58;;;;;;;7.97;4.55;;;20.00;99.90;;;;;;5072354;28;20044;-73
2022/09/08 00:46:37;;;;;;;5.88;4.50;;;19.80;99.90;;;;;;5089224;28;20040;-71
2022/09/08 00:49:18;;;;;;;7.22;4.80;;;19.60;99.90;;;;;;5090368;28;20498;-72
2022/09/08 00:51:51;;;;;;;8.63;4.70;;;19.40;99.90;;;;;;5074804;28;20108;-72
2022/09/08 00:54:19;;;;;;;10.60;4.93;;;19.20;99.90;;;;;;5086730;28;20067;-72
2022/09/08 00:56:49;;;;;;;8.13;4.65;;;19.20;99.90;;;;;;5076695;28;20402;-73
2022/09/08 00:59:23;;;;;;;9.23;4.75;;;19.10;99.90;;;;;;5074340;28;20052;-72
2022/09/08 01:01:52;;;;;;;8.75;4.50;;;19.10;99.90;;;;;;5098296;28;20073;-72
2022/09/08 01:04:20;;;;;;;9.52;5.03;;;19.10;99.90;;;;;;5099502;28;20047;-71
2022/09/08 01:12:58;;;;;;;9.32;4.20;;;18.90;99.90;;;;;;5086436;28;20143;-70
2022/09/08 01:15:28;;;;;;;8.77;4.00;;;18.90;99.90;;;;;;5115276;27;20419;-72
2022/09/08 01:17:56;;;;;;;8.05;4.45;;;18.80;99.90;;;;;;5105644;28;20051;-71
2022/09/08 01:20:31;;;;;;;8.13;4.35;;;18.80;99.90;;;;;;5091981;28;20040;-71
2022/09/08 01:23:25;;;;;;;11.15;4.55;;;18.70;99.90;;;;;;5092922;28;20051;-72
2022/09/08 01:26:21;;;;;;;7.43;3.53;;;18.80;99.90;;;;;;5092270;28;20493;-69
2022/09/08 01:29:05;;;;;;;6.57;3.10;;;18.70;99.90;;;;;;5091721;28;20044;-70
2022/09/08 01:31:36;;;;;;;7.10;3.30;;;18.80;99.90;;;;;;5116402;27;20040;-70
2022/09/08 01:34:04;;;;;;;8.30;3.35;;;18.80;99.90;;;;;;5093522;28;20047;-70
2022/09/08 01:36:31;;;;;;;8.40;3.60;;;18.70;99.90;;;;;;5103323;28;20070;-71
2022/09/08 01:38:59;;;;;;;6.95;3.47;;;18.80;99.90;;;;;;5092538;28;20051;-71
2022/09/08 01:41:26;;;;;;;7.45;3.63;;;18.80;99.90;;;;;;5087662;28;20050;-72
2022/09/08 01:43:54;;;;;;;7.30;3.30;;;18.70;99.90;;;;;;5100778;28;20092;-71
2022/09/08 01:46:21;;;;;;;6.65;3.35;;;18.70;99.90;;;;;;5091725;27;20040;-71
2022/09/08 01:48:49;;;;;;;4.90;3.08;;;18.70;99.90;;;;;;5088990;28;20044;-70
2022/09/08 01:51:16;;;;;;;6.47;3.33;;;18.60;99.90;;;;;;5090437;28;20482;-70
2022/09/08 01:53:50;;;;;;;8.55;2.83;;;18.60;99.90;;;;;;5061943;28;21018;-70
2022/09/08 01:56:17;;;;;;;5.70;2.88;;;18.60;99.90;;;;;;5051924;28;20205;-69
2022/09/08 01:58:45;;;;;;;7.10;2.70;;;18.60;99.90;;;;;;5045155;28;20466;-71
2022/09/08 02:01:12;;;;;;;6.10;2.90;;;18.60;99.90;;;;;;5055692;28;20046;-70
2022/09/08 02:03:41;;;;;;;6.28;2.50;;;18.60;99.90;;;;;;5044543;28;20073;-72
2022/09/08 02:06:08;;;;;;;4.38;2.40;;;18.60;99.90;;;;;;5038582;28;20115;-72
2022/09/08 02:08:36;;;;;;;5.30;2.70;;;18.50;99.90;;;;;;5056864;28;20075;-71
2022/09/08 02:11:04;;;;;;;8.00;2.45;;;18.50;99.90;;;;;;5057862;28;20060;-71
2022/09/08 02:13:33;;;;;;;4.72;2.28;;;18.50;99.90;;;;;;5053077;28;20504;-71
2022/09/08 02:16:03;;;;;;;5.07;2.40;;;18.50;99.90;;;;;;5048096;28;20048;-72
2022/09/08 02:18:31;;;;;;;5.30;2.50;;;18.50;99.90;;;;;;5048599;28;20045;-71
2022/09/08 02:21:19;;;;;;;7.05;2.92;;;18.40;99.90;;;;;;5058447;28;20044;-70
2022/09/08 02:23:48;;;;;;;6.55;2.80;;;18.40;99.90;;;;;;5057003;28;20427;-70
2022/09/08 02:26:19;;;;;;;4.13;2.28;;;18.40;99.90;;;;;;5053322;28;20051;-71
2022/09/08 02:28:47;;;;;;;5.15;2.80;;;18.40;99.90;;;;;;5046665;28;20515;-70
2022/09/08 02:31:14;;;;;;;6.85;2.42;;;18.40;99.90;;;;;;5056528;28;20051;-70
2022/09/08 02:33:42;;;;;;;5.65;2.30;;;18.40;99.90;;;;;;5043244;28;20045;-71
2022/09/08 02:36:09;;;;;;;5.55;2.35;;;18.40;99.90;;;;;;5057583;28;20051;-70
2022/09/08 02:38:37;;;;;;;5.80;2.30;;;18.40;99.90;;;;;;5062736;28;20037;-70
2022/09/08 02:41:06;;;;;;;5.57;2.42;;;18.40;99.90;;;;;;5046744;28;20057;-70
2022/09/08 02:43:34;;;;;;;5.85;2.40;;;18.40;99.90;;;;;;5022986;28;20045;-70
2022/09/08 02:46:06;;;;;;;4.07;2.38;;;18.40;99.90;;;;;;5030071;28;20045;-70
2022/09/08 02:48:34;;;;;;;4.05;2.20;;;18.40;99.90;;;;;;5032433;28;20037;-71
2022/09/08 02:51:04;;;;;;;6.70;2.33;;;18.40;99.90;;;;;;5044867;28;20037;-72
2022/09/08 02:53:32;;;;;;;7.13;2.63;;;18.40;99.90;;;;;;5024724;28;20045;-72
2022/09/08 02:56:01;;;;;;;4.10;2.30;;;18.50;99.90;;;;;;5035032;28;20099;-70
2022/09/08 02:58:29;;;;;;;5.00;2.55;;;18.40;99.90;;;;;;5047612;28;20559;-70
2022/09/08 03:00:56;;;;;;;7.13;2.70;;;18.40;99.90;;;;;;5046257;28;20041;-71
2022/09/08 03:03:25;;;;;;;8.75;2.88;;;18.30;99.90;;;;;;5046140;28;20045;-71
2022/09/08 03:05:52;;;;;;;8.43;2.83;;;18.30;99.90;;;;;;5026682;28;20072;-71
2022/09/08 03:08:21;;;;;;;5.25;2.50;;;18.30;99.90;;;;;;5038350;28;20084;-70
2022/09/08 03:10:48;;;;;;;5.75;2.67;;;18.30;99.90;;;;;;5033706;28;20053;-70
2022/09/08 03:13:16;;;;;;;4.88;2.42;;;18.30;99.90;;;;;;5039043;28;20061;-72
2022/09/08 03:15:43;;;;;;;4.07;2.22;;;18.20;99.90;;;;;;5038290;28;20403;-71
2022/09/08 03:18:11;;;;;;;4.18;2.60;;;18.10;99.90;;;;;;5037124;28;20471;-71
2022/09/08 03:20:40;;;;;;;11.15;2.90;;;18.10;99.90;;;;;;5018129;28;20503;-71
2022/09/08 03:23:07;;;;;;;7.53;3.05;;;17.90;99.90;;;;;;5031623;28;20144;-71
2022/09/08 03:25:36;;;;;;;9.30;3.15;;;17.90;99.90;;;;;;5042464;28;20450;-70
2022/09/08 03:28:04;;;;;;;5.18;2.53;;;17.90;99.90;;;;;;5042780;28;20045;-71
2022/09/08 03:30:32;;;;;;;8.52;2.80;;;17.90;99.90;;;;;;5043387;28;20116;-72
2022/09/08 03:33:00;;;;;;;8.32;3.28;;;17.80;99.90;;;;;;5039351;28;20038;-71
2022/09/08 03:35:27;;;;;;;4.53;2.53;;;17.70;99.90;;;;;;5030332;28;20538;-72
2022/09/08 03:37:55;;;;;;;5.90;2.70;;;17.70;99.90;;;;;;5026409;28;20049;-71
2022/09/08 03:40:22;;;;;;;5.35;2.53;;;17.70;99.90;;;;;;5040878;28;20045;-71
2022/09/08 03:42:50;;;;;;;6.80;2.83;;;17.60;99.90;;;;;;5039170;28;20046;-72
2022/09/08 03:45:18;;;;;;;6.30;2.63;;;17.70;99.90;;;;;;5037587;28;20417;-71
2022/09/08 03:47:45;;;;;;;4.72;2.60;;;17.70;99.90;;;;;;5024758;28;20054;-72
2022/09/08 03:50:16;;;;;;;7.53;3.08;;;17.70;99.90;;;;;;5038309;28;20466;-71
2022/09/08 03:52:43;;;;;;;6.53;2.80;;;17.60;99.90;;;;;;5034983;28;20516;-72
2022/09/08 03:55:11;;;;;;;5.45;2.67;;;17.60;99.90;;;;;;5011428;28;20045;-72
2022/09/08 03:57:38;;;;;;;6.53;2.80;;;17.50;99.90;;;;;;5028807;28;20045;-72
2022/09/08 04:00:09;;;;;;;6.03;2.63;;;17.40;99.90;;;;;;5033615;28;20568;-72
2022/09/08 04:02:39;;;;;;;7.63;3.45;;;17.50;99.90;;;;;;5033477;28;20086;-70
2022/09/08 04:05:07;;;;;;;6.45;3.25;;;17.40;99.90;;;;;;5031450;28;20053;-71
2022/09/08 04:07:35;;;;;;;6.25;3.45;;;17.40;99.90;;;;;;5012603;28;20050;-72
2022/09/08 04:10:04;;;;;;;7.45;3.35;;;17.40;99.90;;;;;;5028335;28;20045;-73
2022/09/08 04:12:42;;;;;;;7.72;3.20;;;17.40;99.90;;;;;;5030075;28;20582;-72
2022/09/08 04:15:09;;;;;;;5.65;3.13;;;17.40;99.90;;;;;;5011250;28;20119;-71
2022/09/08 04:17:37;;;;;;;5.80;3.53;;;17.30;99.90;;;;;;5026771;28;20042;-71
2022/09/08 04:20:06;;;;;;;5.50;3.40;;;17.20;99.90;;;;;;5028349;28;20053;-72
2022/09/08 04:22:34;;;;;;;6.03;3.13;;;17.20;99.90;;;;;;5007826;28;20050;-73
2022/09/08 04:25:02;;;;;;;7.22;2.97;;;17.20;99.90;;;;;;5023297;28;20049;-71
2022/09/08 04:27:30;;;;;;;6.68;2.95;;;17.30;99.90;;;;;;5032313;28;20045;-71
2022/09/08 04:29:57;;;;;;;5.13;3.20;;;17.30;99.90;;;;;;5027470;28;20057;-73
2022/09/08 04:32:25;;;;;;;5.97;3.38;;;17.30;99.90;;;;;;5033296;28;20056;-72
2022/09/08 04:34:52;;;;;;;5.80;2.83;;;17.50;99.90;;;;;;5022286;28;20052;-71
2022/09/08 04:37:20;;;;;;;5.30;2.80;;;17.50;99.90;;;;;;5028477;28;20054;-71
2022/09/08 04:39:49;;;;;;;5.45;2.88;;;17.50;99.90;;;;;;5026542;28;20041;-72
2022/09/08 04:42:17;;;;;;;5.80;2.92;;;17.60;99.90;;;;;;5025309;28;20045;-70
2022/09/08 04:44:44;;;;;;;4.43;2.78;;;17.70;99.90;;;;;;5032710;28;20063;-71
2022/09/08 04:47:12;;;;;;;4.80;2.75;;;17.80;99.90;;;;;;5025593;28;20045;-69
2022/09/08 04:49:39;;;;;;;4.05;2.30;;;17.80;99.90;;;;;;5032666;28;20063;-73
2022/09/08 04:52:06;;;;;;;4.63;2.22;;;17.90;99.90;;;;;;5036872;28;20118;-71
2022/09/08 04:54:34;;;;;;;5.22;2.20;;;17.90;99.90;;;;;;5035893;28;20078;-71
2022/09/08 04:57:01;;;;;;;4.80;2.50;;;17.90;99.90;;;;;;5037974;28;20098;-72
2022/09/08 04:59:29;;;;;;;5.90;2.60;;;17.80;99.90;;;;;;5031302;28;20075;-71
2022/09/08 05:01:56;;;;;;;5.53;2.20;;;17.90;99.90;;;;;;5019150;28;20171;-70
2022/09/08 05:04:23;;;;;;;4.85;2.63;;;17.90;99.90;;;;;;5031053;28;20052;-72
2022/09/08 05:06:50;;;;;;;4.70;2.25;;;18.00;99.90;;;;;;5026899;28;20114;-72
2022/09/08 05:09:18;;;;;;;4.07;2.17;;;18.00;99.90;;;;;;5032063;28;20503;-71
2022/09/08 05:11:45;;;;;;;3.70;2.28;;;18.00;99.90;;;;;;5040726;28;20051;-71
2022/09/08 05:14:12;;;;;;;5.60;2.30;;;18.00;99.90;;;;;;5044175;28;20063;-72
2022/09/08 05:16:40;;;;;;;5.90;2.50;;;18.00;99.90;;;;;;5031790;28;20050;-71
2022/09/08 05:19:07;;;;;;;6.43;2.50;;;18.00;99.90;;;;;;5022811;28;20053;-73
2022/09/08 05:21:35;;;;;;;4.72;2.63;;;18.20;99.90;;;;;;5041022;28;20041;-72
2022/09/08 05:24:04;;;;;;;4.85;2.30;;;18.20;99.90;;;;;;5040565;28;20051;-73
2022/09/08 05:26:32;;;;;;;3.78;2.17;;;18.30;99.90;;;;;;5040179;28;20172;-74
2022/09/08 05:29:03;;;;;;;5.85;3.08;;;18.30;99.90;;;;;;5021372;28;20045;-72
2022/09/08 05:31:30;;;;;;;6.15;3.30;;;18.40;99.90;;;;;;5044049;28;20434;-71
2022/09/08 05:33:58;;;;;;;5.18;3.00;;;18.40;99.90;;;;;;5032876;28;20049;-72
2022/09/08 05:36:32;;;;;;;7.32;3.72;;;18.40;99.90;;;;;;5023699;28;20124;-70
2022/09/08 05:39:04;;;;;;;8.15;3.17;;;18.50;99.90;;;;;;5014151;28;20068;-69
2022/09/08 05:41:32;;;;;;;;;;;18.60;99.90;;;;;;5009382;28;20048;-71
2022/09/08 05:44:00;;;;;;;7.82;3.38;;;18.60;99.90;;;;;;5016002;28;19979;-69
2022/09/08 05:46:28;;;;;;;6.38;3.05;;;18.60;99.90;;;;;;5013058;28;20816;-72
2022/09/08 05:49:01;;;;;;;5.55;3.38;;;18.50;99.90;;;;;;5010923;28;20057;-71
2022/09/08 05:51:32;;;;;;;7.35;3.20;;;18.60;99.90;;;;;;5012823;28;20049;-71
2022/09/08 05:54:00;;;;;;;6.53;3.55;;;18.60;99.90;;;;;;5010410;28;20133;-73
2022/09/08 05:56:28;;;;;;;5.13;3.22;;;18.50;99.90;;;;;;5015462;28;20075;-72
2022/09/08 05:58:57;;;;;;;5.68;2.95;;;18.60;99.90;;;;;;5016611;28;20131;-71
2022/09/08 06:01:33;;;;;;;6.97;2.95;;;18.60;99.90;;;;;;5017845;28;20487;-73
2022/09/08 06:04:02;;;;;;;5.88;3.10;;;18.70;99.90;;;;;;4994024;28;20057;-76
2022/09/08 06:06:31;;;;;;;5.70;2.85;;;18.70;99.90;;;;;;5016699;28;20132;-75
2022/09/08 06:09:00;;;;;;;6.68;3.95;;;18.80;99.90;;;;;;5025641;28;20483;-73
2022/09/08 06:11:30;;;;;;;8.18;4.50;;;18.90;99.90;;;;;;5028078;28;20041;-74
2022/09/08 06:13:57;;;;;;;6.40;2.60;;;19.00;99.90;;;;;;5024432;28;20392;-75
2022/09/08 06:16:26;;;;;;;5.40;3.05;;;19.10;99.90;;;;;;5012605;28;20100;-77
2022/09/08 06:18:53;;;;;;;7.93;2.70;;;19.30;99.90;;;;;;5033657;28;20461;-76
2022/09/08 06:21:23;;;;;;;5.93;2.60;;;19.30;99.90;;;;;;5026089;28;20053;-75
2022/09/08 06:23:54;;;;;;;6.68;2.38;;;19.30;99.90;;;;;;5036885;28;20041;-75
2022/09/08 06:26:33;;;;;;;4.00;2.35;;;19.40;99.90;;;;;;5029630;28;20429;-77
2022/09/08 06:29:22;;;;;;;4.47;2.60;;;19.40;99.90;;;;;;5011670;28;20048;-75
2022/09/08 06:32:17;;;;;;;5.80;2.55;;;19.60;99.90;;;;;;5012125;28;20041;-75
2022/09/08 06:34:51;;;;;;;6.55;2.47;;;19.50;99.90;;;;;;5014966;28;20416;-73
2022/09/08 06:37:32;;;;;;;3.47;2.10;;;19.50;99.90;;;;;;5011551;28;20415;-74
2022/09/08 06:40:17;;;;;;;7.83;2.27;;;19.40;99.90;;;;;;5019967;28;20049;-73
2022/09/08 06:42:49;;;;;;;5.13;2.53;;;19.50;99.90;;;;;;5022993;28;20046;-73
2022/09/08 06:45:40;;;;;;;4.88;3.00;;;19.50;99.90;;;;;;5025353;28;20040;-75
2022/09/08 06:48:31;;;;;;;5.90;2.30;;;19.40;99.90;;;;;;5024741;28;20049;-76
2022/09/08 06:51:12;;;;;;;4.97;2.20;;;19.30;99.90;;;;;;5018108;28;20049;-75
2022/09/08 06:54:02;;;;;;;6.38;2.20;;;19.30;99.90;;;;;;5039415;28;20048;-76
2022/09/08 06:56:48;;;;;;;3.63;2.10;;;19.20;99.90;;;;;;5022878;28;20114;-69
2022/09/08 06:59:57;;;;;;;2.92;1.80;;;19.20;99.90;;;;;;5032196;28;20586;-70
2022/09/08 07:02:58;;;;;;;3.75;1.90;;;19.00;99.90;;;;;;5019722;28;20128;-70
2022/09/08 07:05:50;;;;;;;4.47;2.10;;;18.90;99.90;;;;;;5012657;28;20046;-69
2022/09/08 07:08:17;;;;;;;3.72;2.03;;;18.80;99.90;;;;;;5016376;28;20385;-69
2022/09/08 07:10:55;;;;;;;4.75;2.00;;;18.80;99.90;;;;;;5013899;28;20044;-69
2022/09/08 07:14:05;;;;;;;4.50;1.88;;;18.60;99.90;;;;;;5025554;28;20049;-70
2022/09/08 07:16:45;;;;;;;3.75;1.63;;;18.50;99.90;;;;;;5016190;28;20133;-66
2022/09/08 07:19:22;;;;;;;4.20;1.70;;;18.60;99.90;;;;;;5023813;28;20604;-68
2022/09/08 07:22:31;;;;;;;3.47;1.65;;;18.50;99.90;;;;;;5009836;28;20067;-70
2022/09/08 07:25:24;;;;;;;3.85;1.90;;;18.60;99.90;;;;;;5018859;28;20066;-70
2022/09/08 07:28:00;;;;;;;3.33;1.90;;;18.50;99.90;;;;;;5028766;28;20118;-69
2022/09/08 07:30:28;;;;;;;6.10;1.80;;;18.40;99.90;;;;;;5028280;28;20044;-69
2022/09/08 07:33:14;;;;;;;4.90;1.80;;;18.40;99.90;;;;;;5022874;28;20136;-69
2022/09/08 07:35:45;;;;;;;4.13;2.03;;;18.40;99.90;;;;;;5024483;28;20400;-68
2022/09/08 07:38:19;;;;;;;4.15;2.22;;;18.30;99.90;;;;;;4998445;28;20236;-69
2022/09/08 07:40:51;;;;;;;4.85;2.20;;;18.10;99.90;;;;;;5029797;28;20041;-69
2022/09/08 07:43:19;;;;;;;4.90;1.95;;;18.00;99.90;;;;;;5008808;28;20050;-68
2022/09/08 07:46:12;;;;;;;3.25;1.67;;;17.80;99.90;;;;;;5024027;28;20694;-68
2022/09/08 07:48:46;;;;;;;4.57;2.10;;;17.70;99.90;;;;;;5013484;28;20054;-70
2022/09/08 07:51:16;;;;;;;4.05;1.80;;;17.70;99.90;;;;;;5004102;28;20064;-68
2022/09/08 07:53:49;;;;;;;4.85;2.00;;;17.80;99.90;;;;;;5023166;28;20631;-68
2022/09/08 07:56:38;;;;;;;6.07;1.98;;;17.80;99.90;;;;;;5028529;28;20271;-71
2022/09/08 07:59:31;;;;;;;10.23;2.17;;;17.80;99.90;;;;;;5024452;28;20646;-70
2022/09/08 08:02:03;;;;;;;3.00;1.63;;;17.70;99.90;;;;;;5018913;28;20049;-69
2022/09/08 08:05:18;;;;;;;3.55;2.00;;;17.80;99.90;;;;;;5020485;28;20073;-70
2022/09/08 08:08:14;;;;;;;4.57;2.22;;;17.80;99.90;;;;;;5023687;28;20052;-69
2022/09/08 08:11:09;;;;;;;3.50;1.90;;;17.70;99.90;;;;;;5026879;28;20049;-69
2022/09/08 08:13:50;;;;;;;6.50;2.22;;;17.70;99.90;;;;;;5024490;28;20504;-69
2022/09/08 08:16:35;;;;;;;5.43;2.28;;;17.70;99.90;;;;;;5027166;28;20128;-70
2022/09/08 08:19:40;;;;;;;5.35;2.03;;;17.70;99.90;;;;;;5020403;28;20132;-68
2022/09/08 08:22:40;;;;;;;4.28;1.77;;;17.70;99.90;;;;;;5017530;28;20510;-68
2022/09/08 08:25:20;;;;;;;3.85;1.83;;;17.70;99.90;;;;;;5028076;28;20041;-70
2022/09/08 08:28:19;;;;;;;4.50;2.00;;;17.60;99.90;;;;;;5022757;28;20064;-69
2022/09/08 08:31:14;;;;;;;3.55;1.98;;;17.70;99.90;;;;;;5026862;28;20423;-68
2022/09/08 08:33:45;;;;;;;4.22;2.00;;;17.80;99.90;;;;;;5017940;28;20052;-69
2022/09/08 08:36:20;;;;;;;4.20;1.83;;;17.90;99.90;;;;;;5038438;28;20040;-69
2022/09/08 08:39:07;;;;;;;2.83;1.73;;;17.90;99.90;;;;;;5039647;28;20045;-69
2022/09/08 08:41:56;;;;;;;2.83;1.60;;;17.90;99.90;;;;;;5011777;28;20046;-68
2022/09/08 08:45:00;;;;;;;2.75;1.70;;;17.90;99.90;;;;;;5014031;28;20058;-71
2022/09/08 08:48:14;;;;;;;3.63;1.70;;;17.90;99.90;;;;;;5022334;28;20061;-69
2022/09/08 08:51:01;;;;;;;5.00;1.55;;;17.90;99.90;;;;;;5036119;28;20067;-69
2022/09/08 08:53:52;;;;;;;3.55;1.98;;;17.90;99.90;;;;;;5002881;28;20046;-68
2022/09/08 08:56:39;;;;;;;3.95;1.98;;;18.10;99.90;;;;;;5031583;28;20164;-68
2022/09/08 08:59:25;;;;;;;2.25;1.50;;;18.30;99.90;;;;;;5028771;28;20048;-68
2022/09/08 09:01:58;;;;;;;4.00;1.92;;;18.20;99.90;;;;;;5019450;28;20105;-69
2022/09/08 09:04:31;;;;;;;5.05;1.98;;;18.40;99.90;;;;;;5018290;28;20041;-69
2022/09/08 09:07:18;;;;;;;4.50;1.58;;;18.50;99.90;;;;;;5023546;28;20102;-69
2022/09/08 09:10:09;;;;;;;3.88;2.28;;;18.60;99.90;;;;;;5039835;28;20128;-68
2022/09/08 09:12:48;;;;;;;4.22;1.75;;;18.70;99.90;;;;;;5039784;28;20048;-70
2022/09/08 09:15:26;;;;;;;5.43;2.10;;;18.50;99.90;;;;;;5030876;28;20370;-68
2022/09/08 09:18:38;;;;;;;4.53;1.85;;;18.40;99.90;;;;;;5038478;28;20508;-70
2022/09/08 09:21:24;;;;;;;4.28;1.48;;;18.40;99.90;;;;;;5005349;28;20056;-69
2022/09/08 09:24:08;;;;;;;2.90;1.70;;;18.40;99.90;;;;;;5036770;28;20137;-68
2022/09/08 09:26:35;;;;;;;3.28;1.90;;;18.40;99.90;;;;;;5024300;28;20350;-68
2022/09/08 09:29:20;;;;;;;2.30;1.50;;;18.50;99.90;;;;;;5032244;28;20068;-68
2022/09/08 09:32:09;;;;;;;2.22;1.50;;;18.60;99.90;;;;;;5023842;28;20531;-69
2022/09/08 09:34:58;;;;;;;1.70;1.20;;;18.70;99.90;;;;;;5022319;28;20504;-68
2022/09/08 09:37:40;;;;;;;3.90;1.60;;;18.50;99.90;;;;;;5020480;28;20068;-68
2022/09/08 09:40:41;;;;;;;2.55;1.65;;;18.60;99.90;;;;;;5005161;28;20544;-69
2022/09/08 09:43:12;;;;;;;3.72;1.60;;;18.70;99.90;;;;;;5020881;28;20037;-68
2022/09/08 09:46:01;;;;;;;2.83;1.70;;;18.60;99.90;;;;;;5020436;28;20053;-69
2022/09/08 09:48:56;;;;;;;4.35;1.63;;;18.50;99.90;;;;;;5018075;28;20056;-69
2022/09/08 09:51:51;;;;;;;3.30;1.58;;;18.40;99.90;;;;;;5012319;28;20045;-69
2022/09/08 09:54:32;;;;;;;2.90;1.50;;;18.50;99.90;;;;;;5038439;28;20517;-69
2022/09/08 09:57:14;;;;;;;2.25;1.48;;;18.60;99.90;;;;;;5030247;28;20527;-68
2022/09/08 10:00:08;;;;;;;4.20;1.40;;;18.60;99.90;;;;;;5010355;28;20045;-70
2022/09/08 10:03:08;;;;;;;2.90;1.80;;;18.90;99.90;;;;;;5023166;28;20041;-68
2022/09/08 10:05:45;;;;;;;3.83;1.55;;;18.80;99.90;;;;;;5028784;28;20091;-68
2022/09/08 10:08:44;;;;;;;2.75;1.65;;;18.80;99.90;;;;;;5037515;28;20153;-68
2022/09/08 10:11:37;;;;;;;3.60;1.70;;;19.10;99.90;;;;;;5046394;28;20048;-71
2022/09/08 10:14:23;;;;;;;3.58;2.13;;;18.90;99.90;;;;;;5018304;28;20061;-68
2022/09/08 10:17:15;;;;;;;2.47;1.60;;;19.30;99.90;;;;;;5022949;28;20515;-69
2022/09/08 10:19:45;;;;;;;2.53;2.00;;;19.70;99.90;;;;;;5017428;28;20069;-68
2022/09/08 10:22:44;;;;;;;3.05;1.80;;;19.30;99.90;;;;;;5031581;28;20064;-68
2022/09/08 10:25:21;;;;;;;3.75;1.98;;;19.10;99.90;;;;;;5022283;28;20045;-68
2022/09/08 10:28:08;;;;;;;4.65;2.25;;;19.30;99.90;;;;;;5041150;28;20411;-66
2022/09/08 10:31:20;;;;;;;2.75;1.80;;;19.40;99.90;;;;;;5043778;28;20128;-68
2022/09/08 10:34:22;;;;;;;3.08;2.00;;;19.30;99.90;;;;;;5036676;28;20165;-69
2022/09/08 10:36:49;;;;;;;3.22;1.90;;;19.50;99.90;;;;;;5022719;28;20057;-68
2022/09/08 10:39:57;;;;;;;2.35;1.92;;;19.60;99.90;;;;;;5031928;28;20056;-68
2022/09/08 10:42:43;;;;;;;2.55;2.08;;;19.80;99.90;;;;;;5034620;28;20500;-70
2022/09/08 10:45:38;;;;;;;3.00;2.10;;;19.70;99.90;;;;;;5030400;28;20049;-68
2022/09/08 10:48:27;;;;;;;4.47;2.28;;;19.50;99.90;;;;;;5027639;28;20045;-68
2022/09/08 10:51:12;;;;;;;2.65;1.90;;;19.40;99.90;;;;;;5041807;28;20056;-68
2022/09/08 10:54:00;;;;;;;3.88;1.90;;;19.60;99.90;;;;;;5013190;28;20054;-67
2022/09/08 10:56:29;;;;;;;2.42;2.00;;;19.80;99.90;;;;;;5029258;28;20500;-68
2022/09/08 10:59:37;;;;;;;3.55;2.03;;;19.90;99.90;;;;;;5032435;28;20472;-69
2022/09/08 11:02:31;;;;;;;2.72;2.20;;;20.30;99.90;;;;;;5035519;28;20052;-67
2022/09/08 11:05:20;;;;;;;2.70;2.10;;;20.90;99.90;;;;;;5010771;28;20050;-69
2022/09/08 11:08:05;;;;;;;2.53;2.10;;;20.80;99.90;;;;;;5026482;28;20047;-67
2022/09/08 11:10:45;;;;;;;2.50;2.30;;;20.80;99.90;;;;;;5024528;28;20099;-70
2022/09/08 11:13:42;;;;;;;2.50;2.30;;;20.70;99.90;;;;;;5024467;28;20499;-67
2022/09/08 11:16:28;;;;;;;3.95;2.20;;;20.40;99.90;;;;;;5016810;28;20412;-68
2022/09/08 11:19:13;;;;;;;3.63;2.30;;;20.60;99.90;;;;;;5015344;28;20042;-68
2022/09/08 11:22:13;;;;;;;2.50;2.30;;;20.70;99.90;;;;;;5015261;28;20048;-72
2022/09/08 11:25:12;;;;;;;2.75;2.40;;;20.60;99.90;;;;;;5012181;28;20132;-68
2022/09/08 11:28:08;;;;;;;3.20;2.50;;;20.60;99.90;;;;;;5023076;28;20526;-70
2022/09/08 11:30:40;;;;;;;5.47;2.80;;;20.60;99.90;;;;;;5030440;28;20507;-70
2022/09/08 11:33:08;;;;;;;;;;;20.40;99.90;;;;;;5022104;28;20053;-68
2022/09/08 11:36:02;;;;;;;2.97;2.60;;;20.60;99.90;;;;;;5034813;28;20418;-70
2022/09/08 11:39:04;;;;;;;3.85;2.70;;;20.70;99.90;;;;;;5013710;28;20510;-67
2022/09/08 11:41:31;;;;;;;;;;;20.80;99.90;;;;;;5032951;28;20037;-68
2022/09/08 11:44:23;;;;;;;4.35;2.80;;;20.80;99.90;;;;;;5010012;28;19932;-69
2022/09/08 11:46:50;;;;;;;3.67;3.37;;;20.90;99.90;;;;;;5009279;28;20063;-68
2022/09/08 11:49:36;;;;;;;3.20;2.85;;;21.10;99.90;;;;;;5013957;28;20104;-68
2022/09/08 11:52:47;;;;;;;3.38;3.08;;;21.50;99.90;;;;;;5016284;28;20135;-67
2022/09/08 11:55:53;;;;;;;4.00;3.60;;;21.80;99.90;;;;;;5031369;28;20443;-69
2022/09/08 11:58:38;;;;;;;3.72;3.42;;;22.00;99.90;;;;;;5017368;28;20415;-67
2022/09/08 12:01:17;;;;;;;4.35;3.50;;;22.10;99.90;;;;;;5029956;28;20056;-68
2022/09/08 12:03:56;;;;;;;4.00;3.58;;;22.70;99.90;;;;;;5034035;28;20107;-68
2022/09/08 12:06:45;;;;;;;3.90;3.50;;;22.80;99.90;;;;;;5023136;28;20056;-68
2022/09/08 12:09:18;;;;;;;4.85;3.53;;;22.70;99.90;;;;;;5024301;28;20546;-67
2022/09/08 12:12:16;;;;;;;3.95;3.65;;;23.20;99.90;;;;;;5028076;28;20539;-70
2022/09/08 12:15:05;;;;;;;4.00;3.55;;;23.20;99.90;;;;;;5028794;28;20049;-69
2022/09/08 12:17:50;;;;;;;3.90;3.60;;;22.60;99.90;;;;;;5034560;28;20761;-68
2022/09/08 12:20:35;;;;;;;4.30;3.90;;;22.40;99.90;;;;;;5017318;28;20400;-70
2022/09/08 12:23:23;;;;;;;4.28;3.92;;;22.30;99.90;;;;;;5021597;28;20045;-68
2022/09/08 12:26:28;;;;;;;4.03;3.72;;;22.60;99.90;;;;;;5023134;28;20042;-68
2022/09/08 12:29:13;;;;;;;4.57;4.18;;;22.80;99.90;;;;;;5033268;28;20509;-69
2022/09/08 12:31:50;;;;;;;4.20;3.88;;;22.70;99.90;;;;;;5002407;28;20045;-69
2022/09/08 12:34:31;;;;;;;4.60;4.20;;;22.60;99.90;;;;;;5031035;28;20037;-68
2022/09/08 12:37:17;;;;;;;4.13;3.83;;;22.10;99.90;;;;;;5023904;28;20070;-69
2022/09/08 12:40:18;;;;;;;4.53;3.97;;;21.80;99.90;;;;;;5041552;28;20049;-67
2022/09/08 12:43:03;;;;;;;4.53;3.50;;;21.70;99.90;;;;;;5027723;28;20407;-68
2022/09/08 12:45:52;;;;;;;3.80;3.50;;;21.90;99.90;;;;;;5024111;28;20045;-68
2022/09/08 12:48:32;;;;;;;3.95;3.65;;;22.30;99.90;;;;;;5021913;28;20508;-69
2022/09/08 12:51:28;;;;;;;4.20;3.80;;;22.60;99.90;;;;;;5017799;28;20057;-68
2022/09/08 12:54:23;;;;;;;4.10;3.70;;;22.80;99.90;;;;;;5018175;28;20044;-68
2022/09/08 12:57:11;;;;;;;3.90;3.60;;;23.60;99.90;;;;;;5032601;28;20099;-69
2022/09/08 12:59:55;;;;;;;4.72;4.20;;;24.10;99.90;;;;;;5028273;28;20046;-70
2022/09/08 13:02:25;;;;;;;6.10;3.78;;;24.30;99.90;;;;;;5027116;28;20056;-69
2022/09/08 13:05:32;;;;;;;4.78;3.85;;;24.50;99.90;;;;;;5018755;28;20040;-70
2022/09/08 13:08:33;;;;;;;3.67;3.38;;;24.30;99.90;;;;;;5017611;28;20060;-69
2022/09/08 13:11:16;;;;;;;4.50;4.00;;;24.50;99.90;;;;;;5006371;28;20500;-67
2022/09/08 13:13:44;;;;;;;6.05;3.92;;;25.60;99.90;;;;;;5040677;28;20043;-67
2022/09/08 13:16:26;;;;;;;4.50;4.10;;;25.60;99.90;;;;;;5027753;28;20048;-67
2022/09/08 13:19:03;;;;;;;4.82;4.20;;;27.00;99.90;;;;;;5026669;28;20060;-73
2022/09/08 13:21:39;;;;;;;4.60;4.20;;;27.30;99.90;;;;;;5034487;28;20041;-71
2022/09/08 13:24:15;;;;;;;5.53;5.03;;;27.40;99.90;;;;;;5032560;28;20071;-72
2022/09/08 13:26:48;;;;;;;5.07;4.60;;;27.10;99.90;;;;;;5047096;28;20055;-73
2022/09/08 13:29:34;;;;;;;4.95;4.55;;;25.30;99.90;;;;;;5033732;28;20583;-70
2022/09/08 13:32:42;;;;;;;5.18;4.68;;;24.50;99.90;;;;;;5043878;28;20503;-71
2022/09/08 13:35:22;;;;;;;5.30;4.40;;;23.50;99.90;;;;;;5025069;28;20049;-71
2022/09/08 13:38:27;;;;;;;5.00;4.60;;;23.20;99.90;;;;;;5024615;28;20052;-72
2022/09/08 13:41:11;;;;;;;5.10;4.70;;;22.80;99.90;;;;;;5029807;28;20718;-72
2022/09/08 13:43:58;;;;;;;6.35;4.50;;;23.00;99.90;;;;;;5020943;28;20507;-71
2022/09/08 13:46:49;;;;;;;5.10;4.60;;;23.40;99.90;;;;;;5026677;28;20045;-72
2022/09/08 13:49:39;;;;;;;4.65;4.30;;;23.50;99.90;;;;;;5023490;28;20080;-71
2022/09/08 13:52:09;;;;;;;5.45;4.50;;;24.10;99.90;;;;;;5030374;28;20448;-72